createdAt,value
2022-11-10T00:01:59.956Z,10.13
2022-11-10T00:04:26.094Z,10.16
2022-11-10T00:06:52.317Z,10.23
2022-11-10T00:09:18.615Z,10.15
2022-11-10T00:11:44.746Z,10.10
2022-11-10T00:14:10.907Z,10.06
2022-11-10T00:16:37.071Z,9.99
2022-11-10T00:19:03.214Z,9.93
2022-11-10T00:21:29.347Z,9.94
2022-11-10T00:23:55.483Z,9.96
2022-11-10T00:26:21.589Z,9.97
2022-11-10T00:28:47.736Z,10.01
2022-11-10T00:31:13.879Z,10.04
2022-11-10T00:33:40.015Z,10.05
2022-11-10T00:36:06.125Z,10.05
2022-11-10T00:38:32.250Z,10.01
2022-11-10T00:40:58.377Z,9.90
2022-11-10T00:43:26.800Z,9.78
2022-11-10T00:45:53.195Z,9.63
2022-11-10T00:48:19.326Z,9.49
2022-11-10T00:50:45.462Z,9.37
2022-11-10T00:53:11.632Z,9.30
2022-11-10T00:55:37.750Z,9.25
2022-11-10T00:58:03.885Z,9.18
2022-11-10T01:00:30.052Z,9.12
2022-11-10T01:02:56.242Z,9.12
2022-11-10T01:05:24.012Z,9.09
2022-11-10T01:07:50.213Z,9.01
2022-11-10T01:10:16.326Z,8.99
2022-11-10T01:12:42.539Z,8.91
2022-11-10T01:15:08.729Z,8.95
2022-11-10T01:17:34.938Z,8.97
2022-11-10T01:20:01.050Z,9.04
2022-11-10T01:22:27.234Z,9.11
2022-11-10T01:24:53.349Z,9.12
2022-11-10T01:27:19.499Z,9.11
2022-11-10T01:29:45.639Z,9.08
2022-11-10T01:32:11.770Z,9.04
2022-11-10T01:34:37.926Z,8.99
2022-11-10T01:37:04.073Z,8.90
2022-11-10T01:39:30.203Z,8.83
2022-11-10T01:41:56.326Z,8.69
2022-11-10T01:44:22.502Z,8.61
2022-11-10T01:46:48.648Z,8.50
2022-11-10T01:49:14.774Z,8.40
2022-11-10T01:51:41.217Z,8.30
2022-11-10T01:54:07.350Z,8.28
2022-11-10T01:56:33.492Z,8.21
2022-11-10T01:58:59.636Z,8.10
2022-11-10T02:01:25.780Z,8.06
2022-11-10T02:03:51.910Z,8.01
2022-11-10T02:06:18.048Z,7.97
2022-11-10T02:08:44.183Z,8.01
2022-11-10T02:11:10.299Z,8.11
2022-11-10T02:13:36.439Z,8.07
2022-11-10T02:16:02.604Z,8.00
2022-11-10T02:18:28.764Z,7.99
2022-11-10T02:20:54.890Z,7.97
2022-11-10T02:23:21.205Z,7.94
2022-11-10T02:25:47.488Z,7.91
2022-11-10T02:28:13.655Z,7.86
2022-11-10T02:30:39.789Z,7.82
2022-11-10T02:33:05.924Z,7.82
2022-11-10T02:35:32.106Z,7.78
2022-11-10T02:37:58.271Z,7.79
2022-11-10T02:40:24.488Z,7.80
2022-11-10T02:42:50.625Z,7.79
2022-11-10T02:45:16.788Z,7.78
2022-11-10T02:47:42.937Z,7.73
2022-11-10T02:50:09.087Z,7.66
2022-11-10T02:52:35.272Z,7.60
2022-11-10T02:55:01.449Z,7.64
2022-11-10T02:57:27.601Z,7.60
2022-11-10T02:59:53.715Z,7.65
2022-11-10T03:02:19.834Z,7.62
2022-11-10T03:04:45.945Z,7.59
2022-11-10T03:07:12.142Z,7.53
2022-11-10T03:09:38.277Z,7.47
2022-11-10T03:12:04.419Z,7.42
2022-11-10T03:14:30.551Z,7.33
2022-11-10T03:16:56.692Z,7.22
2022-11-10T03:19:22.856Z,7.16
2022-11-10T03:21:48.982Z,7.10
2022-11-10T03:24:15.101Z,7.05
2022-11-10T03:26:41.248Z,7.01
2022-11-10T03:29:07.374Z,7.00
2022-11-10T03:31:33.519Z,6.95
2022-11-10T03:33:59.645Z,6.92
2022-11-10T03:36:25.787Z,6.86
2022-11-10T03:38:51.897Z,6.85
2022-11-10T03:41:19.799Z,6.82
2022-11-10T03:43:46.544Z,6.87
2022-11-10T03:46:12.681Z,6.89
2022-11-10T03:48:38.826Z,6.89
2022-11-10T03:51:04.956Z,6.85
2022-11-10T03:53:31.112Z,6.84
2022-11-10T03:55:57.264Z,6.83
2022-11-10T03:58:23.404Z,6.80
2022-11-10T04:00:49.531Z,6.80
2022-11-10T04:03:15.662Z,6.79
2022-11-10T04:05:41.809Z,6.74
2022-11-10T04:08:07.944Z,6.69
2022-11-10T04:10:34.133Z,6.62
2022-11-10T04:13:00.337Z,6.63
2022-11-10T04:15:26.530Z,6.57
2022-11-10T04:17:52.654Z,6.55
2022-11-10T04:20:18.810Z,6.54
2022-11-10T04:22:44.944Z,6.52
2022-11-10T04:25:11.068Z,6.51
2022-11-10T04:27:37.204Z,6.48
2022-11-10T04:30:03.339Z,6.45
2022-11-10T04:32:29.523Z,6.45
2022-11-10T04:34:55.630Z,6.40
2022-11-10T04:37:21.788Z,6.42
2022-11-10T04:39:47.920Z,6.43
2022-11-10T04:42:14.051Z,6.41
2022-11-10T04:44:40.240Z,6.41
2022-11-10T04:47:11.510Z,6.38
2022-11-10T04:49:38.044Z,6.31
2022-11-10T04:52:04.267Z,6.28
2022-11-10T04:54:30.442Z,6.27
2022-11-10T04:56:56.566Z,6.21
2022-11-10T04:59:22.738Z,6.14
2022-11-10T05:01:48.867Z,6.17
2022-11-10T05:04:14.992Z,6.12
2022-11-10T05:06:41.191Z,6.16
2022-11-10T05:09:07.383Z,6.12
2022-11-10T05:11:33.535Z,6.08
2022-11-10T05:13:59.692Z,6.02
2022-11-10T05:16:25.817Z,6.01
2022-11-10T05:18:51.955Z,5.97
2022-11-10T05:21:18.072Z,5.96
2022-11-10T05:23:44.248Z,6.00
2022-11-10T05:26:10.388Z,6.00
2022-11-10T05:28:36.565Z,5.99
2022-11-10T05:31:02.701Z,6.02
2022-11-10T05:33:28.835Z,6.07
2022-11-10T05:35:54.971Z,6.10
2022-11-10T05:38:21.119Z,6.17
2022-11-10T05:40:47.277Z,6.25
2022-11-10T05:43:13.391Z,6.29
2022-11-10T05:45:39.574Z,6.31
2022-11-10T05:48:05.714Z,6.33
2022-11-10T05:50:31.837Z,6.34
2022-11-10T05:52:58.078Z,6.38
2022-11-10T05:55:24.222Z,6.42
2022-11-10T05:57:50.365Z,6.43
2022-11-10T06:00:16.498Z,6.41
2022-11-10T06:02:42.691Z,6.41
2022-11-10T06:05:08.822Z,6.37
2022-11-10T06:07:35.017Z,6.31
2022-11-10T06:10:03.072Z,6.27
2022-11-10T06:12:29.188Z,6.29
2022-11-10T06:14:55.362Z,6.28
2022-11-10T06:17:21.522Z,6.20
2022-11-10T06:19:47.657Z,6.12
2022-11-10T06:22:13.829Z,6.10
2022-11-10T06:24:40.059Z,6.04
2022-11-10T06:27:08.596Z,6.02
2022-11-10T06:29:34.735Z,5.99
2022-11-10T06:32:00.882Z,6.00
2022-11-10T06:34:27.013Z,6.01
2022-11-10T06:36:53.224Z,6.01
2022-11-10T06:39:19.459Z,6.00
2022-11-10T06:41:45.585Z,6.02
2022-11-10T06:44:11.733Z,6.04
2022-11-10T06:46:42.138Z,6.06
2022-11-10T06:49:08.610Z,6.09
2022-11-10T06:51:34.758Z,6.10
2022-11-10T06:54:00.884Z,6.15
2022-11-10T06:56:27.040Z,6.18
2022-11-10T06:58:53.163Z,6.20
2022-11-10T07:01:22.404Z,6.26
2022-11-10T07:04:17.548Z,6.30
2022-11-10T07:06:35.023Z,6.36
2022-11-10T07:09:03.318Z,6.39
2022-11-10T07:11:29.429Z,6.40
2022-11-10T07:13:55.559Z,6.43
2022-11-10T07:16:24.438Z,6.48
2022-11-10T07:18:50.844Z,6.52
2022-11-10T07:21:17.188Z,6.59
2022-11-10T07:23:43.331Z,6.67
2022-11-10T07:26:09.456Z,6.76
2022-11-10T07:28:35.613Z,6.86
2022-11-10T07:31:01.754Z,6.96
2022-11-10T07:33:27.963Z,7.06
2022-11-10T07:35:54.081Z,7.16
2022-11-10T07:38:20.208Z,7.27
2022-11-10T07:40:46.386Z,7.41
2022-11-10T07:43:12.514Z,7.51
2022-11-10T07:45:38.647Z,7.61
2022-11-10T07:48:04.791Z,7.69
2022-11-10T07:50:30.919Z,7.82
2022-11-10T07:52:57.061Z,7.92
2022-11-10T07:55:23.180Z,8.05
2022-11-10T07:57:49.349Z,8.16
2022-11-10T08:00:15.503Z,8.25
2022-11-10T08:02:41.679Z,8.39
2022-11-10T08:05:07.789Z,8.52
2022-11-10T08:07:34.034Z,8.68
2022-11-10T08:10:00.272Z,8.84
2022-11-10T08:12:29.831Z,8.96
2022-11-10T08:14:57.475Z,9.28
2022-11-10T08:17:23.648Z,9.75
2022-11-10T08:19:49.787Z,10.16
2022-11-10T08:22:15.951Z,10.88
2022-11-10T08:24:42.084Z,11.71
2022-11-10T08:27:08.201Z,12.69
2022-11-10T08:29:34.411Z,13.60
2022-11-10T08:32:00.583Z,14.23
2022-11-10T08:34:26.723Z,14.43
2022-11-10T08:36:52.931Z,14.78
2022-11-10T08:39:37.624Z,14.93
2022-11-10T08:42:04.586Z,14.78
2022-11-10T08:44:30.729Z,14.52
2022-11-10T08:46:56.911Z,14.19
2022-11-10T08:49:23.061Z,14.12
2022-11-10T08:51:49.200Z,14.05
2022-11-10T08:54:15.318Z,13.77
2022-11-10T08:56:41.463Z,13.72
2022-11-10T08:59:07.598Z,13.59
2022-11-10T09:01:33.777Z,13.51
2022-11-10T09:03:59.959Z,13.38
2022-11-10T09:06:26.099Z,13.29
2022-11-10T09:08:52.271Z,13.26
2022-11-10T09:11:18.412Z,13.23
2022-11-10T09:13:44.543Z,13.15
2022-11-10T09:16:10.699Z,13.19
2022-11-10T09:18:36.863Z,13.21
2022-11-10T09:21:03.018Z,13.31
2022-11-10T09:23:29.131Z,13.56
2022-11-10T09:25:55.281Z,14.01
2022-11-10T09:28:21.404Z,14.43
2022-11-10T09:30:47.544Z,14.32
2022-11-10T09:33:13.694Z,14.57
2022-11-10T09:35:39.858Z,14.96
2022-11-10T09:38:06.014Z,15.56
2022-11-10T09:40:32.137Z,15.84
2022-11-10T09:42:58.307Z,15.83
2022-11-10T09:45:24.500Z,15.65
2022-11-10T09:47:57.271Z,15.76
2022-11-10T09:50:24.289Z,15.36
2022-11-10T09:52:50.440Z,16.46
2022-11-10T09:55:16.579Z,16.98
2022-11-10T09:57:48.604Z,17.92
2022-11-10T10:00:15.055Z,17.83
2022-11-10T10:02:41.187Z,17.99
2022-11-10T10:05:07.329Z,17.73
2022-11-10T10:07:33.525Z,18.07
2022-11-10T10:09:59.680Z,18.10
2022-11-10T10:12:25.828Z,18.19
2022-11-10T10:14:51.990Z,17.75
2022-11-10T10:17:18.150Z,17.27
2022-11-10T10:19:44.295Z,17.23
2022-11-10T10:22:10.616Z,17.05
2022-11-10T10:24:36.780Z,17.05
2022-11-10T10:27:02.947Z,17.58
2022-11-10T10:29:33.141Z,16.95
2022-11-10T10:32:03.131Z,16.68
2022-11-10T10:34:29.337Z,16.43
2022-11-10T10:36:55.511Z,15.72
2022-11-10T10:39:21.638Z,15.13
2022-11-10T10:41:47.779Z,15.14
2022-11-10T10:44:13.927Z,15.40
2022-11-10T10:46:40.113Z,15.71
2022-11-10T10:49:27.448Z,16.03
2022-11-10T10:51:55.948Z,16.35
2022-11-10T10:54:22.067Z,16.34
2022-11-10T10:56:48.200Z,16.32
2022-11-10T10:59:14.374Z,15.96
2022-11-10T11:01:40.556Z,15.78
2022-11-10T11:04:06.756Z,15.55
2022-11-10T11:06:32.966Z,15.62
2022-11-10T11:09:00.008Z,15.57
2022-11-10T11:11:26.384Z,15.53
2022-11-10T11:13:52.535Z,15.46
2022-11-10T11:16:20.108Z,15.47
2022-11-10T11:18:46.263Z,15.44
2022-11-10T11:21:12.439Z,15.36
2022-11-10T11:23:38.593Z,15.48
2022-11-10T11:26:04.726Z,15.41
2022-11-10T11:28:30.852Z,15.50
2022-11-10T11:30:56.995Z,15.45
2022-11-10T11:33:23.141Z,15.28
2022-11-10T11:35:49.266Z,15.49
2022-11-10T11:38:15.422Z,15.62
2022-11-10T11:40:41.565Z,15.72
2022-11-10T11:43:07.680Z,15.72
2022-11-10T11:45:33.809Z,15.72
2022-11-10T11:47:59.938Z,15.60
2022-11-10T11:50:26.081Z,15.61
2022-11-10T11:52:52.209Z,15.74
2022-11-10T11:55:18.360Z,15.88
2022-11-10T11:57:44.486Z,15.78
2022-11-10T12:00:10.644Z,15.77
2022-11-10T12:02:36.811Z,15.89
2022-11-10T12:05:02.932Z,15.76
2022-11-10T12:07:29.091Z,15.68
2022-11-10T12:09:55.232Z,15.68
2022-11-10T12:12:21.393Z,15.69
2022-11-10T12:14:47.531Z,15.75
2022-11-10T12:17:13.686Z,15.91
2022-11-10T12:19:39.813Z,15.96
2022-11-10T12:22:06.022Z,15.99
2022-11-10T12:24:32.185Z,15.64
2022-11-10T12:26:58.301Z,15.55
2022-11-10T12:29:24.436Z,15.57
2022-11-10T12:31:50.589Z,15.66
2022-11-10T12:34:16.716Z,15.68
2022-11-10T12:36:42.895Z,15.80
2022-11-10T12:39:09.024Z,15.55
2022-11-10T12:41:35.182Z,15.53
2022-11-10T12:44:01.349Z,15.58
2022-11-10T12:46:27.482Z,15.55
2022-11-10T12:48:53.606Z,15.45
2022-11-10T12:51:19.771Z,15.48
2022-11-10T12:53:45.897Z,15.50
2022-11-10T12:56:12.003Z,15.50
2022-11-10T12:58:38.351Z,15.52
2022-11-10T13:01:04.509Z,15.49
2022-11-10T13:03:30.690Z,15.57
2022-11-10T13:05:56.845Z,15.57
2022-11-10T13:08:23.310Z,15.48
2022-11-10T13:10:49.639Z,15.35
2022-11-10T13:13:15.761Z,15.53
2022-11-10T13:15:41.896Z,15.52
2022-11-10T13:18:08.062Z,15.56
2022-11-10T13:20:34.208Z,15.56
2022-11-10T13:23:00.355Z,15.51
2022-11-10T13:25:26.513Z,15.53
2022-11-10T13:27:52.811Z,15.57
2022-11-10T13:30:18.962Z,15.66
2022-11-10T13:32:45.075Z,15.66
2022-11-10T13:35:11.230Z,15.61
2022-11-10T13:37:40.012Z,15.69
2022-11-10T13:40:10.947Z,15.67
2022-11-10T13:42:37.096Z,15.66
2022-11-10T13:45:03.219Z,15.59
2022-11-10T13:47:29.603Z,15.54
2022-11-10T13:49:55.770Z,15.58
2022-11-10T13:52:21.912Z,15.47
2022-11-10T13:54:48.060Z,15.55
2022-11-10T13:57:14.202Z,15.66
2022-11-10T13:59:40.362Z,15.65
2022-11-10T14:02:06.504Z,15.78
2022-11-10T14:04:35.023Z,15.66
2022-11-10T14:07:01.358Z,15.49
2022-11-10T14:09:27.559Z,15.46
2022-11-10T14:11:53.707Z,15.55
2022-11-10T14:14:19.847Z,15.57
2022-11-10T14:16:45.974Z,15.62
2022-11-10T14:19:12.112Z,15.41
2022-11-10T14:21:38.253Z,15.45
2022-11-10T14:24:04.371Z,15.36
2022-11-10T14:26:30.527Z,15.27
2022-11-10T14:28:56.641Z,15.35
2022-11-10T14:31:22.759Z,15.26
2022-11-10T14:33:48.912Z,15.35
2022-11-10T14:36:15.021Z,15.20
2022-11-10T14:38:41.187Z,15.13
2022-11-10T14:41:07.364Z,15.16
2022-11-10T14:43:33.553Z,15.06
2022-11-10T14:45:59.691Z,15.10
2022-11-10T14:48:26.114Z,15.12
2022-11-10T14:50:52.337Z,15.02
2022-11-10T14:53:18.492Z,14.95
2022-11-10T14:55:44.640Z,14.93
2022-11-10T14:58:10.772Z,14.77
2022-11-10T15:00:36.932Z,14.67
2022-11-10T15:03:03.135Z,14.64
2022-11-10T15:05:29.289Z,14.76
2022-11-10T15:07:55.435Z,14.51
2022-11-10T15:10:21.560Z,14.49
2022-11-10T15:12:47.727Z,14.29
2022-11-10T15:15:13.891Z,14.28
2022-11-10T15:17:40.055Z,14.02
2022-11-10T15:20:06.181Z,13.95
2022-11-10T15:22:32.287Z,13.80
2022-11-10T15:24:58.433Z,13.61
2022-11-10T15:27:24.600Z,13.36
2022-11-10T15:29:50.777Z,13.16
2022-11-10T15:32:16.884Z,13.00
2022-11-10T15:34:42.998Z,12.85
2022-11-10T15:37:09.170Z,12.71
2022-11-10T15:39:35.345Z,12.55
2022-11-10T15:42:01.557Z,12.41
2022-11-10T15:44:27.699Z,12.25
2022-11-10T15:46:53.826Z,12.14
2022-11-10T15:49:20.012Z,12.03
2022-11-10T15:51:46.169Z,11.92
2022-11-10T15:54:12.297Z,11.80
2022-11-10T15:56:39.524Z,11.69
2022-11-10T15:59:05.661Z,11.57
2022-11-10T16:01:31.903Z,11.47
2022-11-10T16:03:58.126Z,11.36
2022-11-10T16:06:24.245Z,11.29
2022-11-10T16:08:50.371Z,11.18
2022-11-10T16:11:16.581Z,11.07
2022-11-10T16:13:42.704Z,10.96
2022-11-10T16:16:08.873Z,10.87
2022-11-10T16:18:34.989Z,10.79
2022-11-10T16:21:01.142Z,10.71
2022-11-10T16:23:27.284Z,10.64
2022-11-10T16:25:53.425Z,10.55
2022-11-10T16:28:19.701Z,10.45
2022-11-10T16:30:46.025Z,10.39
2022-11-10T16:33:12.198Z,10.31
2022-11-10T16:35:38.323Z,10.21
2022-11-10T16:38:04.482Z,10.14
2022-11-10T16:40:30.624Z,10.08
2022-11-10T16:42:59.551Z,10.02
2022-11-10T16:45:25.699Z,9.95
2022-11-10T16:47:51.843Z,9.92
2022-11-10T16:50:18.008Z,9.82
2022-11-10T16:52:44.148Z,9.78
2022-11-10T16:55:10.337Z,9.70
2022-11-10T16:57:39.943Z,9.67
2022-11-10T17:00:06.292Z,9.62
2022-11-10T17:02:32.462Z,9.57
2022-11-10T17:04:58.616Z,9.48
2022-11-10T17:07:24.801Z,9.42
2022-11-10T17:09:50.956Z,9.35
2022-11-10T17:12:17.068Z,9.31
2022-11-10T17:14:43.198Z,9.28
2022-11-10T17:17:09.355Z,9.28
2022-11-10T17:19:35.497Z,9.21
2022-11-10T17:22:01.642Z,9.21
2022-11-10T17:24:27.786Z,9.12
2022-11-10T17:26:53.953Z,9.07
2022-11-10T17:29:20.067Z,9.03
2022-11-10T17:31:46.185Z,9.00
2022-11-10T17:34:12.335Z,8.93
2022-11-10T17:36:38.455Z,8.91
2022-11-10T17:39:04.580Z,8.85
2022-11-10T17:41:30.743Z,8.79
2022-11-10T17:43:56.891Z,8.74
2022-11-10T17:46:23.001Z,8.75
2022-11-10T17:48:49.156Z,8.69
2022-11-10T17:51:15.275Z,8.66
2022-11-10T17:53:41.417Z,8.62
2022-11-10T17:56:07.536Z,8.59
2022-11-10T17:58:33.694Z,8.50
2022-11-10T18:00:59.816Z,8.48
2022-11-10T18:03:26.072Z,8.41
2022-11-10T18:05:52.312Z,8.36
2022-11-10T18:08:18.437Z,8.35
2022-11-10T18:10:44.551Z,8.34
2022-11-10T18:13:10.703Z,8.34
2022-11-10T18:15:36.844Z,8.23
2022-11-10T18:18:02.978Z,8.19
2022-11-10T18:20:29.111Z,8.15
2022-11-10T18:22:55.278Z,8.09
2022-11-10T18:25:21.404Z,8.08
2022-11-10T18:27:47.552Z,8.06
2022-11-10T18:30:13.677Z,7.99
2022-11-10T18:32:39.795Z,7.97
2022-11-10T18:35:05.933Z,7.94
2022-11-10T18:37:34.699Z,7.93
2022-11-10T18:40:04.214Z,7.90
2022-11-10T18:42:30.329Z,7.81
2022-11-10T18:44:56.443Z,7.79
2022-11-10T18:47:22.591Z,7.73
2022-11-10T18:49:48.736Z,7.67
2022-11-10T18:52:14.888Z,7.66
2022-11-10T18:54:41.011Z,7.61
2022-11-10T18:57:07.239Z,7.56
2022-11-10T18:59:33.588Z,7.53
2022-11-10T19:01:59.812Z,7.51
2022-11-10T19:04:29.370Z,7.50
2022-11-10T19:06:55.645Z,7.51
2022-11-10T19:09:21.848Z,7.45
2022-11-10T19:11:48.057Z,7.42
2022-11-10T19:14:14.352Z,7.42
2022-11-10T19:16:41.705Z,7.38
2022-11-10T19:19:07.838Z,7.39
2022-11-10T19:21:33.996Z,7.35
2022-11-10T19:24:00.238Z,7.33
2022-11-10T19:26:26.609Z,7.36
2022-11-10T19:28:52.770Z,7.35
2022-11-10T19:31:18.885Z,7.33
2022-11-10T19:33:45.022Z,7.31
2022-11-10T19:36:11.183Z,7.28
2022-11-10T19:38:37.328Z,7.26
2022-11-10T19:41:03.455Z,7.28
2022-11-10T19:43:29.593Z,7.24
2022-11-10T19:45:58.730Z,7.24
2022-11-10T19:48:24.913Z,7.23
2022-11-10T19:50:51.069Z,7.19
2022-11-10T19:53:17.211Z,7.16
2022-11-10T19:55:43.346Z,7.16
2022-11-10T19:58:09.618Z,7.15
2022-11-10T20:00:36.036Z,7.14
2022-11-10T20:03:02.190Z,7.11
2022-11-10T20:05:28.502Z,7.08
2022-11-10T20:07:54.653Z,7.04
2022-11-10T20:10:20.789Z,7.02
2022-11-10T20:12:46.917Z,6.99
2022-11-10T20:15:13.061Z,6.98
2022-11-10T20:17:39.226Z,7.00
2022-11-10T20:20:05.355Z,6.95
2022-11-10T20:22:31.502Z,6.95
2022-11-10T20:24:57.633Z,6.93
2022-11-10T20:27:23.793Z,6.90
2022-11-10T20:29:49.953Z,6.91
2022-11-10T20:32:16.166Z,6.92
2022-11-10T20:34:42.310Z,6.89
2022-11-10T20:37:08.468Z,6.83
2022-11-10T20:39:34.721Z,6.83
2022-11-10T20:42:00.851Z,6.81
2022-11-10T20:44:27.050Z,6.75
2022-11-10T20:46:54.794Z,6.71
2022-11-10T20:49:21.426Z,6.66
2022-11-10T20:51:47.558Z,6.66
2022-11-10T20:54:13.701Z,6.64
2022-11-10T20:56:39.832Z,6.59
2022-11-10T20:59:05.966Z,6.59
2022-11-10T21:01:32.180Z,6.54
2022-11-10T21:03:58.367Z,6.54
2022-11-10T21:06:24.522Z,6.50
2022-11-10T21:08:50.759Z,6.47
2022-11-10T21:11:16.889Z,6.40
2022-11-10T21:13:43.253Z,6.34
2022-11-10T21:16:09.391Z,6.32
2022-11-10T21:18:35.817Z,6.30
2022-11-10T21:21:01.938Z,6.24
2022-11-10T21:23:28.090Z,6.23
2022-11-10T21:25:54.239Z,6.20
2022-11-10T21:28:20.407Z,6.20
2022-11-10T21:30:46.519Z,6.19
2022-11-10T21:33:12.633Z,6.17
2022-11-10T21:35:38.770Z,6.18
2022-11-10T21:38:04.902Z,6.18
2022-11-10T21:40:31.029Z,6.16
2022-11-10T21:42:57.188Z,6.13
2022-11-10T21:45:23.320Z,6.11
2022-11-10T21:47:49.427Z,6.16
2022-11-10T21:50:15.577Z,6.10
2022-11-10T21:52:41.703Z,6.07
2022-11-10T21:55:07.813Z,6.04
2022-11-10T21:57:33.946Z,6.01
2022-11-10T22:00:00.061Z,5.96
2022-11-10T22:02:26.238Z,5.89
2022-11-10T22:04:52.370Z,5.87
2022-11-10T22:07:18.567Z,5.89
2022-11-10T22:09:44.737Z,5.85
2022-11-10T22:12:10.855Z,5.88
2022-11-10T22:14:36.999Z,5.87
2022-11-10T22:17:03.118Z,5.82
2022-11-10T22:19:29.235Z,5.82
2022-11-10T22:21:57.359Z,5.82
2022-11-10T22:24:27.121Z,5.80
2022-11-10T22:26:53.232Z,5.78
2022-11-10T22:29:19.337Z,5.70
2022-11-10T22:31:45.472Z,5.65
2022-11-10T22:34:11.617Z,5.66
2022-11-10T22:36:37.723Z,5.65
2022-11-10T22:39:04.139Z,5.57
2022-11-10T22:41:30.326Z,5.57
2022-11-10T22:43:56.467Z,5.53
2022-11-10T22:46:22.595Z,5.48
2022-11-10T22:48:48.717Z,5.50
2022-11-10T22:51:14.869Z,5.45
2022-11-10T22:53:40.988Z,5.43
2022-11-10T22:56:07.112Z,5.41
2022-11-10T22:58:33.252Z,5.38
2022-11-10T23:00:59.378Z,5.40
2022-11-10T23:03:25.584Z,5.30
2022-11-10T23:05:56.259Z,5.26
2022-11-10T23:08:22.814Z,5.26
2022-11-10T23:10:48.957Z,5.27
2022-11-10T23:13:15.074Z,5.23
2022-11-10T23:15:41.209Z,5.19
2022-11-10T23:18:07.331Z,5.15
2022-11-10T23:20:33.450Z,5.11
2022-11-10T23:22:59.598Z,5.06
2022-11-10T23:25:25.742Z,5.03
2022-11-10T23:27:51.842Z,5.00
2022-11-10T23:30:17.950Z,5.00
2022-11-10T23:32:44.078Z,5.05
2022-11-10T23:35:10.238Z,4.95
2022-11-10T23:37:36.371Z,4.90
2022-11-10T23:40:02.500Z,4.91
2022-11-10T23:42:29.874Z,4.89
2022-11-10T23:44:59.076Z,4.86
2022-11-10T23:47:25.246Z,4.84
2022-11-10T23:49:51.394Z,4.83
2022-11-10T23:52:17.514Z,4.81
2022-11-10T23:54:43.651Z,4.78
2022-11-10T23:57:09.836Z,4.80
2022-11-10T23:59:35.960Z,4.79
